sensor_id;sensor_type;location;lat;lon;timestamp;P1;durP1;ratioP1;P2;durP2;ratioP2
6207;SDS011;3137;51.550;7.060;2023-12-07T00:02:20;41.27;;;24.83;;
6207;SDS011;3137;51.550;7.060;2023-12-07T00:04:47;43.77;;;25.13;;
6207;SDS011;3137;51.550;7.060;2023-12-07T00:07:14;50.50;;;29.00;;
6207;SDS011;3137;51.550;7.060;2023-12-07T00:09:40;63.27;;;30.83;;
6207;SDS011;3137;51.550;7.060;2023-12-07T00:12:07;58.67;;;29.57;;
6207;SDS011;3137;51.550;7.060;2023-12-07T00:14:34;59.03;;;32.00;;
6207;SDS011;3137;51.550;7.060;2023-12-07T00:17:00;63.10;;;32.43;;
6207;SDS011;3137;51.550;7.060;2023-12-07T00:19:26;61.30;;;32.73;;
6207;SDS011;3137;51.550;7.060;2023-12-07T00:21:53;65.23;;;32.80;;
6207;SDS011;3137;51.550;7.060;2023-12-07T00:24:19;73.63;;;35.47;;
6207;SDS011;3137;51.550;7.060;2023-12-07T00:26:46;72.70;;;35.10;;
6207;SDS011;3137;51.550;7.060;2023-12-07T00:29:12;79.63;;;34.67;;
6207;SDS011;3137;51.550;7.060;2023-12-07T00:31:39;79.70;;;37.40;;
6207;SDS011;3137;51.550;7.060;2023-12-07T00:34:05;89.43;;;37.63;;
6207;SDS011;3137;51.550;7.060;2023-12-07T00:36:32;87.17;;;36.77;;
6207;SDS011;3137;51.550;7.060;2023-12-07T00:38:58;77.23;;;35.83;;
6207;SDS011;3137;51.550;7.060;2023-12-07T00:41:24;104.07;;;37.03;;
6207;SDS011;3137;51.550;7.060;2023-12-07T00:43:51;97.03;;;38.17;;
6207;SDS011;3137;51.550;7.060;2023-12-07T00:46:17;108.30;;;41.10;;
6207;SDS011;3137;51.550;7.060;2023-12-07T00:48:44;105.80;;;41.13;;
6207;SDS011;3137;51.550;7.060;2023-12-07T00:51:10;89.97;;;36.47;;
6207;SDS011;3137;51.550;7.060;2023-12-07T00:53:37;77.77;;;35.47;;
6207;SDS011;3137;51.550;7.060;2023-12-07T00:56:04;78.00;;;35.80;;
6207;SDS011;3137;51.550;7.060;2023-12-07T00:58:31;83.10;;;38.33;;
6207;SDS011;3137;51.550;7.060;2023-12-07T01:00:57;68.13;;;30.83;;
6207;SDS011;3137;51.550;7.060;2023-12-07T01:03:24;67.53;;;32.20;;
6207;SDS011;3137;51.550;7.060;2023-12-07T01:05:50;61.30;;;31.17;;
6207;SDS011;3137;51.550;7.060;2023-12-07T01:08:17;61.97;;;31.13;;
6207;SDS011;3137;51.550;7.060;2023-12-07T01:10:43;65.27;;;31.57;;
6207;SDS011;3137;51.550;7.060;2023-12-07T01:13:10;63.80;;;28.93;;
6207;SDS011;3137;51.550;7.060;2023-12-07T01:15:36;53.97;;;27.97;;
6207;SDS011;3137;51.550;7.060;2023-12-07T01:18:03;99.90;;;33.33;;
6207;SDS011;3137;51.550;7.060;2023-12-07T01:20:29;74.57;;;30.60;;
6207;SDS011;3137;51.550;7.060;2023-12-07T01:22:56;54.87;;;29.93;;
6207;SDS011;3137;51.550;7.060;2023-12-07T01:25:22;52.40;;;29.07;;
6207;SDS011;3137;51.550;7.060;2023-12-07T01:27:49;63.07;;;29.70;;
6207;SDS011;3137;51.550;7.060;2023-12-07T01:30:16;46.63;;;27.97;;
6207;SDS011;3137;51.550;7.060;2023-12-07T01:32:43;60.43;;;30.67;;
6207;SDS011;3137;51.550;7.060;2023-12-07T01:35:09;64.43;;;30.33;;
6207;SDS011;3137;51.550;7.060;2023-12-07T01:37:36;52.10;;;27.43;;
6207;SDS011;3137;51.550;7.060;2023-12-07T01:40:02;62.57;;;28.30;;
6207;SDS011;3137;51.550;7.060;2023-12-07T01:42:32;46.00;;;26.27;;
6207;SDS011;3137;51.550;7.060;2023-12-07T01:44:58;51.90;;;29.03;;
6207;SDS011;3137;51.550;7.060;2023-12-07T01:47:25;50.77;;;27.27;;
6207;SDS011;3137;51.550;7.060;2023-12-07T01:49:51;65.17;;;27.20;;
6207;SDS011;3137;51.550;7.060;2023-12-07T01:52:18;63.43;;;29.53;;
6207;SDS011;3137;51.550;7.060;2023-12-07T01:54:48;100.87;;;29.93;;
6207;SDS011;3137;51.550;7.060;2023-12-07T01:57:15;64.33;;;27.93;;
6207;SDS011;3137;51.550;7.060;2023-12-07T01:59:41;51.30;;;28.30;;
6207;SDS011;3137;51.550;7.060;2023-12-07T02:02:08;48.10;;;27.03;;
6207;SDS011;3137;51.550;7.060;2023-12-07T02:04:35;42.37;;;25.80;;
6207;SDS011;3137;51.550;7.060;2023-12-07T02:07:02;44.40;;;24.77;;
6207;SDS011;3137;51.550;7.060;2023-12-07T02:09:30;66.57;;;30.30;;
6207;SDS011;3137;51.550;7.060;2023-12-07T02:11:58;58.83;;;29.60;;
6207;SDS011;3137;51.550;7.060;2023-12-07T02:14:25;51.13;;;27.67;;
6207;SDS011;3137;51.550;7.060;2023-12-07T02:16:54;54.53;;;29.70;;
6207;SDS011;3137;51.550;7.060;2023-12-07T02:19:47;54.33;;;28.40;;
6207;SDS011;3137;51.550;7.060;2023-12-07T02:22:21;99.97;;;36.13;;
6207;SDS011;3137;51.550;7.060;2023-12-07T02:25:03;60.77;;;31.43;;
6207;SDS011;3137;51.550;7.060;2023-12-07T02:27:39;75.03;;;35.77;;
6207;SDS011;3137;51.550;7.060;2023-12-07T02:30:09;63.23;;;32.57;;
6207;SDS011;3137;51.550;7.060;2023-12-07T02:32:37;77.03;;;34.10;;
6207;SDS011;3137;51.550;7.060;2023-12-07T02:35:06;62.73;;;33.73;;
6207;SDS011;3137;51.550;7.060;2023-12-07T02:37:37;64.70;;;33.80;;
6207;SDS011;3137;51.550;7.060;2023-12-07T02:40:08;135.27;;;44.93;;
6207;SDS011;3137;51.550;7.060;2023-12-07T02:42:38;82.57;;;36.37;;
6207;SDS011;3137;51.550;7.060;2023-12-07T02:45:06;63.97;;;32.87;;
6207;SDS011;3137;51.550;7.060;2023-12-07T02:47:34;157.20;;;33.33;;
6207;SDS011;3137;51.550;7.060;2023-12-07T02:50:01;64.13;;;31.80;;
6207;SDS011;3137;51.550;7.060;2023-12-07T02:52:28;205.97;;;33.13;;
6207;SDS011;3137;51.550;7.060;2023-12-07T02:54:55;54.57;;;29.07;;
6207;SDS011;3137;51.550;7.060;2023-12-07T02:57:21;84.47;;;31.47;;
6207;SDS011;3137;51.550;7.060;2023-12-07T02:59:48;45.10;;;26.77;;
6207;SDS011;3137;51.550;7.060;2023-12-07T03:02:14;56.17;;;29.17;;
6207;SDS011;3137;51.550;7.060;2023-12-07T03:04:40;108.30;;;31.70;;
6207;SDS011;3137;51.550;7.060;2023-12-07T03:07:07;58.17;;;29.03;;
6207;SDS011;3137;51.550;7.060;2023-12-07T03:09:34;59.03;;;30.27;;
6207;SDS011;3137;51.550;7.060;2023-12-07T03:12:00;81.20;;;28.40;;
6207;SDS011;3137;51.550;7.060;2023-12-07T03:14:26;92.80;;;28.13;;
6207;SDS011;3137;51.550;7.060;2023-12-07T03:16:53;61.73;;;27.60;;
6207;SDS011;3137;51.550;7.060;2023-12-07T03:19:20;53.47;;;27.27;;
6207;SDS011;3137;51.550;7.060;2023-12-07T03:21:46;100.10;;;30.33;;
6207;SDS011;3137;51.550;7.060;2023-12-07T03:24:13;99.87;;;29.77;;
6207;SDS011;3137;51.550;7.060;2023-12-07T03:26:39;56.57;;;27.87;;
6207;SDS011;3137;51.550;7.060;2023-12-07T03:29:06;68.73;;;29.10;;
6207;SDS011;3137;51.550;7.060;2023-12-07T03:31:32;97.97;;;29.53;;
6207;SDS011;3137;51.550;7.060;2023-12-07T03:33:59;71.03;;;34.43;;
6207;SDS011;3137;51.550;7.060;2023-12-07T03:36:27;60.73;;;30.47;;
6207;SDS011;3137;51.550;7.060;2023-12-07T03:38:56;92.00;;;32.07;;
6207;SDS011;3137;51.550;7.060;2023-12-07T03:41:22;60.93;;;29.40;;
6207;SDS011;3137;51.550;7.060;2023-12-07T03:43:49;80.80;;;29.40;;
6207;SDS011;3137;51.550;7.060;2023-12-07T03:46:16;73.43;;;33.03;;
6207;SDS011;3137;51.550;7.060;2023-12-07T03:48:43;138.90;;;35.63;;
6207;SDS011;3137;51.550;7.060;2023-12-07T03:51:12;84.20;;;34.50;;
6207;SDS011;3137;51.550;7.060;2023-12-07T03:53:39;131.93;;;31.00;;
6207;SDS011;3137;51.550;7.060;2023-12-07T03:56:06;66.20;;;31.60;;
6207;SDS011;3137;51.550;7.060;2023-12-07T03:58:32;141.70;;;30.57;;
6207;SDS011;3137;51.550;7.060;2023-12-07T04:00:59;63.07;;;31.30;;
6207;SDS011;3137;51.550;7.060;2023-12-07T04:03:25;66.20;;;29.73;;
6207;SDS011;3137;51.550;7.060;2023-12-07T04:05:52;68.97;;;29.43;;
6207;SDS011;3137;51.550;7.060;2023-12-07T04:08:19;83.00;;;33.47;;
6207;SDS011;3137;51.550;7.060;2023-12-07T04:10:45;68.83;;;30.67;;
6207;SDS011;3137;51.550;7.060;2023-12-07T04:13:12;149.53;;;35.13;;
6207;SDS011;3137;51.550;7.060;2023-12-07T04:15:38;114.57;;;33.30;;
6207;SDS011;3137;51.550;7.060;2023-12-07T04:18:05;67.43;;;30.27;;
6207;SDS011;3137;51.550;7.060;2023-12-07T04:20:31;77.83;;;29.07;;
6207;SDS011;3137;51.550;7.060;2023-12-07T04:22:58;71.00;;;30.33;;
6207;SDS011;3137;51.550;7.060;2023-12-07T04:25:24;97.07;;;30.97;;
6207;SDS011;3137;51.550;7.060;2023-12-07T04:27:50;76.70;;;30.10;;
6207;SDS011;3137;51.550;7.060;2023-12-07T04:30:17;72.90;;;28.57;;
6207;SDS011;3137;51.550;7.060;2023-12-07T04:32:44;80.07;;;31.10;;
6207;SDS011;3137;51.550;7.060;2023-12-07T04:35:10;79.63;;;29.97;;
6207;SDS011;3137;51.550;7.060;2023-12-07T04:37:37;70.50;;;27.80;;
6207;SDS011;3137;51.550;7.060;2023-12-07T04:40:04;99.20;;;34.33;;
6207;SDS011;3137;51.550;7.060;2023-12-07T04:42:31;92.60;;;31.17;;
6207;SDS011;3137;51.550;7.060;2023-12-07T04:44:58;84.33;;;30.17;;
6207;SDS011;3137;51.550;7.060;2023-12-07T04:47:24;84.57;;;30.43;;
6207;SDS011;3137;51.550;7.060;2023-12-07T04:49:51;101.90;;;31.20;;
6207;SDS011;3137;51.550;7.060;2023-12-07T04:52:18;93.93;;;31.00;;
6207;SDS011;3137;51.550;7.060;2023-12-07T04:54:45;89.63;;;29.50;;
6207;SDS011;3137;51.550;7.060;2023-12-07T04:57:12;94.97;;;30.83;;
6207;SDS011;3137;51.550;7.060;2023-12-07T04:59:38;96.80;;;29.93;;
6207;SDS011;3137;51.550;7.060;2023-12-07T05:02:06;93.90;;;30.90;;
6207;SDS011;3137;51.550;7.060;2023-12-07T05:04:32;83.90;;;29.23;;
6207;SDS011;3137;51.550;7.060;2023-12-07T05:06:59;84.50;;;30.00;;
6207;SDS011;3137;51.550;7.060;2023-12-07T05:09:27;99.50;;;30.67;;
6207;SDS011;3137;51.550;7.060;2023-12-07T05:11:57;90.90;;;29.63;;
6207;SDS011;3137;51.550;7.060;2023-12-07T05:14:24;91.03;;;30.03;;
6207;SDS011;3137;51.550;7.060;2023-12-07T05:16:50;94.23;;;30.03;;
6207;SDS011;3137;51.550;7.060;2023-12-07T05:19:22;84.77;;;28.57;;
6207;SDS011;3137;51.550;7.060;2023-12-07T05:21:49;72.93;;;26.60;;
6207;SDS011;3137;51.550;7.060;2023-12-07T05:24:16;82.80;;;28.07;;
6207;SDS011;3137;51.550;7.060;2023-12-07T05:26:44;85.97;;;28.67;;
6207;SDS011;3137;51.550;7.060;2023-12-07T05:29:14;79.43;;;28.20;;
6207;SDS011;3137;51.550;7.060;2023-12-07T05:31:41;84.50;;;28.77;;
6207;SDS011;3137;51.550;7.060;2023-12-07T05:34:07;70.13;;;25.00;;
6207;SDS011;3137;51.550;7.060;2023-12-07T05:36:34;64.67;;;26.13;;
6207;SDS011;3137;51.550;7.060;2023-12-07T05:39:01;73.33;;;28.80;;
6207;SDS011;3137;51.550;7.060;2023-12-07T05:41:27;80.77;;;27.37;;
6207;SDS011;3137;51.550;7.060;2023-12-07T05:43:53;75.90;;;28.00;;
6207;SDS011;3137;51.550;7.060;2023-12-07T05:46:20;72.97;;;27.20;;
6207;SDS011;3137;51.550;7.060;2023-12-07T05:48:46;79.53;;;28.87;;
6207;SDS011;3137;51.550;7.060;2023-12-07T05:51:13;85.90;;;28.27;;
6207;SDS011;3137;51.550;7.060;2023-12-07T05:53:42;77.77;;;26.00;;
6207;SDS011;3137;51.550;7.060;2023-12-07T05:56:09;71.40;;;26.20;;
6207;SDS011;3137;51.550;7.060;2023-12-07T05:58:35;76.20;;;27.87;;
6207;SDS011;3137;51.550;7.060;2023-12-07T06:01:02;65.77;;;26.60;;
6207;SDS011;3137;51.550;7.060;2023-12-07T06:03:29;83.57;;;28.60;;
6207;SDS011;3137;51.550;7.060;2023-12-07T06:05:56;76.57;;;28.47;;
6207;SDS011;3137;51.550;7.060;2023-12-07T06:08:22;74.03;;;27.60;;
6207;SDS011;3137;51.550;7.060;2023-12-07T06:10:48;78.80;;;28.43;;
6207;SDS011;3137;51.550;7.060;2023-12-07T06:13:15;96.60;;;32.17;;
6207;SDS011;3137;51.550;7.060;2023-12-07T06:15:41;78.67;;;30.00;;
6207;SDS011;3137;51.550;7.060;2023-12-07T06:18:08;75.87;;;28.80;;
6207;SDS011;3137;51.550;7.060;2023-12-07T06:20:35;73.90;;;28.93;;
6207;SDS011;3137;51.550;7.060;2023-12-07T06:23:01;77.43;;;28.83;;
6207;SDS011;3137;51.550;7.060;2023-12-07T06:25:28;75.60;;;31.00;;
6207;SDS011;3137;51.550;7.060;2023-12-07T06:27:54;90.67;;;31.00;;
6207;SDS011;3137;51.550;7.060;2023-12-07T06:30:22;72.13;;;28.33;;
6207;SDS011;3137;51.550;7.060;2023-12-07T06:32:49;72.63;;;27.37;;
6207;SDS011;3137;51.550;7.060;2023-12-07T06:35:15;75.53;;;28.43;;
6207;SDS011;3137;51.550;7.060;2023-12-07T06:37:42;67.40;;;26.67;;
6207;SDS011;3137;51.550;7.060;2023-12-07T06:40:09;60.40;;;26.40;;
6207;SDS011;3137;51.550;7.060;2023-12-07T06:42:36;54.60;;;25.60;;
6207;SDS011;3137;51.550;7.060;2023-12-07T06:45:02;68.23;;;28.10;;
6207;SDS011;3137;51.550;7.060;2023-12-07T06:47:29;65.93;;;27.37;;
6207;SDS011;3137;51.550;7.060;2023-12-07T06:49:55;70.27;;;29.63;;
6207;SDS011;3137;51.550;7.060;2023-12-07T06:52:22;66.87;;;28.37;;
6207;SDS011;3137;51.550;7.060;2023-12-07T06:54:48;65.33;;;28.20;;
6207;SDS011;3137;51.550;7.060;2023-12-07T06:57:15;63.77;;;26.17;;
6207;SDS011;3137;51.550;7.060;2023-12-07T06:59:41;62.50;;;24.97;;
6207;SDS011;3137;51.550;7.060;2023-12-07T07:02:08;58.87;;;25.63;;
6207;SDS011;3137;51.550;7.060;2023-12-07T07:04:35;54.17;;;26.13;;
6207;SDS011;3137;51.550;7.060;2023-12-07T07:07:01;55.27;;;25.73;;
6207;SDS011;3137;51.550;7.060;2023-12-07T07:09:28;58.50;;;26.50;;
6207;SDS011;3137;51.550;7.060;2023-12-07T07:11:54;70.20;;;28.70;;
6207;SDS011;3137;51.550;7.060;2023-12-07T07:14:21;57.47;;;26.43;;
6207;SDS011;3137;51.550;7.060;2023-12-07T07:16:47;55.23;;;26.80;;
6207;SDS011;3137;51.550;7.060;2023-12-07T07:19:13;54.37;;;25.70;;
6207;SDS011;3137;51.550;7.060;2023-12-07T07:21:40;65.47;;;27.20;;
6207;SDS011;3137;51.550;7.060;2023-12-07T07:24:07;58.03;;;24.80;;
6207;SDS011;3137;51.550;7.060;2023-12-07T07:26:35;72.10;;;27.13;;
6207;SDS011;3137;51.550;7.060;2023-12-07T07:29:02;53.87;;;23.27;;
6207;SDS011;3137;51.550;7.060;2023-12-07T07:31:30;62.10;;;27.23;;
6207;SDS011;3137;51.550;7.060;2023-12-07T07:33:56;79.33;;;26.33;;
6207;SDS011;3137;51.550;7.060;2023-12-07T07:36:27;56.53;;;25.27;;
6207;SDS011;3137;51.550;7.060;2023-12-07T07:38:54;61.17;;;25.80;;
6207;SDS011;3137;51.550;7.060;2023-12-07T07:41:20;73.73;;;27.33;;
6207;SDS011;3137;51.550;7.060;2023-12-07T07:43:47;58.77;;;25.50;;
6207;SDS011;3137;51.550;7.060;2023-12-07T07:46:14;70.37;;;26.17;;
6207;SDS011;3137;51.550;7.060;2023-12-07T07:48:40;78.33;;;27.77;;
6207;SDS011;3137;51.550;7.060;2023-12-07T07:51:07;67.67;;;26.47;;
6207;SDS011;3137;51.550;7.060;2023-12-07T07:53:33;57.63;;;25.90;;
6207;SDS011;3137;51.550;7.060;2023-12-07T07:56:00;66.90;;;25.87;;
6207;SDS011;3137;51.550;7.060;2023-12-07T07:58:26;60.20;;;26.07;;
6207;SDS011;3137;51.550;7.060;2023-12-07T08:00:53;70.07;;;28.93;;
6207;SDS011;3137;51.550;7.060;2023-12-07T08:03:20;62.53;;;25.07;;
6207;SDS011;3137;51.550;7.060;2023-12-07T08:05:46;57.60;;;27.20;;
6207;SDS011;3137;51.550;7.060;2023-12-07T08:08:13;69.67;;;28.70;;
6207;SDS011;3137;51.550;7.060;2023-12-07T08:10:39;77.20;;;30.63;;
6207;SDS011;3137;51.550;7.060;2023-12-07T08:13:21;64.60;;;27.63;;
6207;SDS011;3137;51.550;7.060;2023-12-07T08:15:47;68.87;;;27.63;;
6207;SDS011;3137;51.550;7.060;2023-12-07T08:18:14;69.97;;;26.77;;
6207;SDS011;3137;51.550;7.060;2023-12-07T08:20:41;67.30;;;27.17;;
6207;SDS011;3137;51.550;7.060;2023-12-07T08:23:07;55.87;;;24.90;;
6207;SDS011;3137;51.550;7.060;2023-12-07T08:25:34;54.57;;;25.83;;
6207;SDS011;3137;51.550;7.060;2023-12-07T08:28:00;64.47;;;26.00;;
6207;SDS011;3137;51.550;7.060;2023-12-07T08:30:27;69.10;;;26.60;;
6207;SDS011;3137;51.550;7.060;2023-12-07T08:32:54;67.70;;;27.40;;
6207;SDS011;3137;51.550;7.060;2023-12-07T08:35:21;73.73;;;29.13;;
6207;SDS011;3137;51.550;7.060;2023-12-07T08:37:47;69.20;;;27.67;;
6207;SDS011;3137;51.550;7.060;2023-12-07T08:40:14;74.00;;;27.40;;
6207;SDS011;3137;51.550;7.060;2023-12-07T08:42:45;58.93;;;27.43;;
6207;SDS011;3137;51.550;7.060;2023-12-07T08:45:14;74.30;;;28.30;;
6207;SDS011;3137;51.550;7.060;2023-12-07T08:47:41;79.00;;;29.00;;
6207;SDS011;3137;51.550;7.060;2023-12-07T08:50:08;74.17;;;26.70;;
6207;SDS011;3137;51.550;7.060;2023-12-07T08:52:35;70.83;;;29.47;;
6207;SDS011;3137;51.550;7.060;2023-12-07T08:55:12;76.30;;;29.43;;
6207;SDS011;3137;51.550;7.060;2023-12-07T08:57:41;71.03;;;28.03;;
6207;SDS011;3137;51.550;7.060;2023-12-07T09:00:08;69.20;;;28.60;;
6207;SDS011;3137;51.550;7.060;2023-12-07T09:02:35;70.33;;;27.03;;
6207;SDS011;3137;51.550;7.060;2023-12-07T09:05:12;75.27;;;28.13;;
6207;SDS011;3137;51.550;7.060;2023-12-07T09:07:39;77.27;;;27.40;;
6207;SDS011;3137;51.550;7.060;2023-12-07T09:10:06;75.90;;;27.90;;
6207;SDS011;3137;51.550;7.060;2023-12-07T09:12:34;63.13;;;28.10;;
6207;SDS011;3137;51.550;7.060;2023-12-07T09:15:05;77.97;;;28.30;;
6207;SDS011;3137;51.550;7.060;2023-12-07T09:17:37;75.77;;;29.63;;
6207;SDS011;3137;51.550;7.060;2023-12-07T09:20:08;66.40;;;29.27;;
6207;SDS011;3137;51.550;7.060;2023-12-07T09:22:42;82.13;;;29.30;;
6207;SDS011;3137;51.550;7.060;2023-12-07T09:25:10;78.83;;;30.03;;
6207;SDS011;3137;51.550;7.060;2023-12-07T09:27:38;65.63;;;26.10;;
6207;SDS011;3137;51.550;7.060;2023-12-07T09:30:05;72.50;;;29.50;;
6207;SDS011;3137;51.550;7.060;2023-12-07T09:32:40;73.03;;;30.10;;
6207;SDS011;3137;51.550;7.060;2023-12-07T09:35:10;68.30;;;28.37;;
6207;SDS011;3137;51.550;7.060;2023-12-07T09:37:47;71.07;;;28.90;;
6207;SDS011;3137;51.550;7.060;2023-12-07T09:40:15;77.60;;;29.70;;
6207;SDS011;3137;51.550;7.060;2023-12-07T09:42:44;82.93;;;32.40;;
6207;SDS011;3137;51.550;7.060;2023-12-07T09:45:11;73.40;;;31.03;;
6207;SDS011;3137;51.550;7.060;2023-12-07T09:47:37;62.23;;;28.80;;
6207;SDS011;3137;51.550;7.060;2023-12-07T09:50:06;71.90;;;29.93;;
6207;SDS011;3137;51.550;7.060;2023-12-07T09:52:38;70.90;;;28.00;;
6207;SDS011;3137;51.550;7.060;2023-12-07T09:55:07;71.57;;;29.00;;
6207;SDS011;3137;51.550;7.060;2023-12-07T09:57:34;72.57;;;28.20;;
6207;SDS011;3137;51.550;7.060;2023-12-07T10:00:03;64.03;;;29.37;;
6207;SDS011;3137;51.550;7.060;2023-12-07T10:02:32;72.53;;;28.70;;
6207;SDS011;3137;51.550;7.060;2023-12-07T10:05:05;79.80;;;30.33;;
6207;SDS011;3137;51.550;7.060;2023-12-07T10:07:33;70.73;;;29.17;;
6207;SDS011;3137;51.550;7.060;2023-12-07T10:10:02;52.57;;;26.67;;
6207;SDS011;3137;51.550;7.060;2023-12-07T10:12:30;66.43;;;27.83;;
6207;SDS011;3137;51.550;7.060;2023-12-07T10:14:57;55.90;;;28.00;;
6207;SDS011;3137;51.550;7.060;2023-12-07T10:17:24;61.37;;;28.87;;
6207;SDS011;3137;51.550;7.060;2023-12-07T10:20:07;63.77;;;27.87;;
6207;SDS011;3137;51.550;7.060;2023-12-07T10:22:39;60.87;;;29.23;;
6207;SDS011;3137;51.550;7.060;2023-12-07T10:25:06;56.37;;;25.70;;
6207;SDS011;3137;51.550;7.060;2023-12-07T10:27:33;46.93;;;25.50;;
6207;SDS011;3137;51.550;7.060;2023-12-07T10:29:59;48.57;;;25.40;;
6207;SDS011;3137;51.550;7.060;2023-12-07T10:32:26;54.67;;;23.93;;
6207;SDS011;3137;51.550;7.060;2023-12-07T10:34:53;48.97;;;24.67;;
6207;SDS011;3137;51.550;7.060;2023-12-07T10:37:19;59.70;;;25.67;;
6207;SDS011;3137;51.550;7.060;2023-12-07T10:39:46;48.57;;;24.63;;
6207;SDS011;3137;51.550;7.060;2023-12-07T10:42:13;48.27;;;24.17;;
6207;SDS011;3137;51.550;7.060;2023-12-07T10:44:42;42.10;;;22.07;;
6207;SDS011;3137;51.550;7.060;2023-12-07T10:47:11;50.73;;;24.00;;
6207;SDS011;3137;51.550;7.060;2023-12-07T10:49:40;43.23;;;24.17;;
6207;SDS011;3137;51.550;7.060;2023-12-07T10:52:13;29.63;;;19.10;;
6207;SDS011;3137;51.550;7.060;2023-12-07T10:57:47;41.10;;;19.97;;
6207;SDS011;3137;51.550;7.060;2023-12-07T11:00:14;39.97;;;20.37;;
6207;SDS011;3137;51.550;7.060;2023-12-07T11:02:40;25.60;;;18.87;;
6207;SDS011;3137;51.550;7.060;2023-12-07T11:05:09;36.40;;;18.80;;
6207;SDS011;3137;51.550;7.060;2023-12-07T11:07:38;28.60;;;18.37;;
6207;SDS011;3137;51.550;7.060;2023-12-07T11:10:15;31.40;;;16.47;;
6207;SDS011;3137;51.550;7.060;2023-12-07T11:12:50;28.83;;;17.50;;
6207;SDS011;3137;51.550;7.060;2023-12-07T11:15:22;24.63;;;16.60;;
6207;SDS011;3137;51.550;7.060;2023-12-07T11:17:55;33.10;;;16.33;;
6207;SDS011;3137;51.550;7.060;2023-12-07T11:20:31;26.23;;;16.20;;
6207;SDS011;3137;51.550;7.060;2023-12-07T11:23:05;23.40;;;16.23;;
6207;SDS011;3137;51.550;7.060;2023-12-07T11:25:33;25.50;;;16.77;;
6207;SDS011;3137;51.550;7.060;2023-12-07T11:28:03;19.03;;;14.47;;
6207;SDS011;3137;51.550;7.060;2023-12-07T11:30:32;28.17;;;15.73;;
6207;SDS011;3137;51.550;7.060;2023-12-07T11:32:59;34.80;;;15.17;;
6207;SDS011;3137;51.550;7.060;2023-12-07T11:35:26;23.87;;;15.33;;
6207;SDS011;3137;51.550;7.060;2023-12-07T11:38:00;30.70;;;15.07;;
6207;SDS011;3137;51.550;7.060;2023-12-07T11:40:30;27.27;;;15.33;;
6207;SDS011;3137;51.550;7.060;2023-12-07T11:43:01;19.90;;;15.00;;
6207;SDS011;3137;51.550;7.060;2023-12-07T11:45:38;33.03;;;15.27;;
6207;SDS011;3137;51.550;7.060;2023-12-07T11:48:09;18.63;;;13.80;;
6207;SDS011;3137;51.550;7.060;2023-12-07T11:53:26;32.93;;;13.73;;
6207;SDS011;3137;51.550;7.060;2023-12-07T11:55:56;20.33;;;13.60;;
6207;SDS011;3137;51.550;7.060;2023-12-07T11:58:27;15.40;;;13.80;;
6207;SDS011;3137;51.550;7.060;2023-12-07T12:00:55;29.63;;;13.23;;
6207;SDS011;3137;51.550;7.060;2023-12-07T12:03:23;20.87;;;11.77;;
6207;SDS011;3137;51.550;7.060;2023-12-07T12:05:50;16.77;;;13.97;;
6207;SDS011;3137;51.550;7.060;2023-12-07T12:08:17;21.00;;;13.50;;
6207;SDS011;3137;51.550;7.060;2023-12-07T12:10:45;17.40;;;13.00;;
6207;SDS011;3137;51.550;7.060;2023-12-07T12:13:12;22.13;;;12.43;;
6207;SDS011;3137;51.550;7.060;2023-12-07T12:15:39;20.90;;;12.83;;
6207;SDS011;3137;51.550;7.060;2023-12-07T12:18:06;22.23;;;13.30;;
6207;SDS011;3137;51.550;7.060;2023-12-07T12:20:34;20.60;;;12.70;;
6207;SDS011;3137;51.550;7.060;2023-12-07T12:23:01;14.10;;;12.67;;
6207;SDS011;3137;51.550;7.060;2023-12-07T12:25:28;24.73;;;13.20;;
6207;SDS011;3137;51.550;7.060;2023-12-07T12:28:05;16.03;;;11.73;;
6207;SDS011;3137;51.550;7.060;2023-12-07T12:30:34;14.50;;;12.43;;
6207;SDS011;3137;51.550;7.060;2023-12-07T12:33:02;23.87;;;12.27;;
6207;SDS011;3137;51.550;7.060;2023-12-07T12:35:28;17.03;;;11.97;;
6207;SDS011;3137;51.550;7.060;2023-12-07T12:37:55;18.23;;;12.27;;
6207;SDS011;3137;51.550;7.060;2023-12-07T12:40:22;22.63;;;12.63;;
6207;SDS011;3137;51.550;7.060;2023-12-07T12:42:50;12.43;;;11.33;;
6207;SDS011;3137;51.550;7.060;2023-12-07T12:45:22;12.97;;;11.73;;
6207;SDS011;3137;51.550;7.060;2023-12-07T12:47:49;15.77;;;11.33;;
6207;SDS011;3137;51.550;7.060;2023-12-07T12:50:31;21.20;;;12.87;;
6207;SDS011;3137;51.550;7.060;2023-12-07T12:53:09;18.80;;;11.23;;
6207;SDS011;3137;51.550;7.060;2023-12-07T12:55:37;12.27;;;11.00;;
6207;SDS011;3137;51.550;7.060;2023-12-07T12:58:08;11.53;;;10.53;;
6207;SDS011;3137;51.550;7.060;2023-12-07T13:00:39;31.13;;;11.60;;
6207;SDS011;3137;51.550;7.060;2023-12-07T13:03:07;15.10;;;12.17;;
6207;SDS011;3137;51.550;7.060;2023-12-07T13:05:34;16.40;;;11.93;;
6207;SDS011;3137;51.550;7.060;2023-12-07T13:08:01;17.87;;;12.10;;
6207;SDS011;3137;51.550;7.060;2023-12-07T13:10:40;21.83;;;12.53;;
6207;SDS011;3137;51.550;7.060;2023-12-07T13:13:07;22.93;;;14.43;;
6207;SDS011;3137;51.550;7.060;2023-12-07T13:15:34;19.47;;;14.37;;
6207;SDS011;3137;51.550;7.060;2023-12-07T13:18:00;22.40;;;15.00;;
6207;SDS011;3137;51.550;7.060;2023-12-07T13:20:31;18.97;;;14.07;;
6207;SDS011;3137;51.550;7.060;2023-12-07T13:23:15;19.33;;;13.60;;
6207;SDS011;3137;51.550;7.060;2023-12-07T13:25:41;28.07;;;14.20;;
6207;SDS011;3137;51.550;7.060;2023-12-07T13:28:08;22.57;;;14.33;;
6207;SDS011;3137;51.550;7.060;2023-12-07T13:30:35;21.53;;;13.80;;
6207;SDS011;3137;51.550;7.060;2023-12-07T13:33:02;21.23;;;14.03;;
6207;SDS011;3137;51.550;7.060;2023-12-07T13:35:47;34.27;;;13.03;;
6207;SDS011;3137;51.550;7.060;2023-12-07T13:38:14;19.10;;;12.87;;
6207;SDS011;3137;51.550;7.060;2023-12-07T13:40:40;15.83;;;12.80;;
6207;SDS011;3137;51.550;7.060;2023-12-07T13:43:07;16.27;;;12.70;;
6207;SDS011;3137;51.550;7.060;2023-12-07T13:45:35;24.80;;;13.20;;
6207;SDS011;3137;51.550;7.060;2023-12-07T13:48:01;15.40;;;13.20;;
6207;SDS011;3137;51.550;7.060;2023-12-07T13:50:28;14.93;;;13.13;;
6207;SDS011;3137;51.550;7.060;2023-12-07T13:52:55;19.40;;;12.67;;
6207;SDS011;3137;51.550;7.060;2023-12-07T13:55:21;13.80;;;11.90;;
6207;SDS011;3137;51.550;7.060;2023-12-07T13:57:50;21.37;;;14.00;;
6207;SDS011;3137;51.550;7.060;2023-12-07T14:00:19;22.80;;;13.17;;
6207;SDS011;3137;51.550;7.060;2023-12-07T14:02:46;17.43;;;12.57;;
6207;SDS011;3137;51.550;7.060;2023-12-07T14:05:13;24.83;;;12.40;;
6207;SDS011;3137;51.550;7.060;2023-12-07T14:07:39;14.17;;;12.70;;
6207;SDS011;3137;51.550;7.060;2023-12-07T14:10:06;20.23;;;13.27;;
6207;SDS011;3137;51.550;7.060;2023-12-07T14:12:34;14.27;;;12.73;;
6207;SDS011;3137;51.550;7.060;2023-12-07T14:15:00;20.30;;;13.10;;
6207;SDS011;3137;51.550;7.060;2023-12-07T14:17:27;11.63;;;10.50;;
6207;SDS011;3137;51.550;7.060;2023-12-07T14:20:06;17.20;;;13.13;;
6207;SDS011;3137;51.550;7.060;2023-12-07T14:22:54;18.57;;;13.23;;
6207;SDS011;3137;51.550;7.060;2023-12-07T14:25:21;23.70;;;12.50;;
6207;SDS011;3137;51.550;7.060;2023-12-07T14:27:48;20.20;;;12.13;;
6207;SDS011;3137;51.550;7.060;2023-12-07T14:30:15;15.57;;;12.10;;
6207;SDS011;3137;51.550;7.060;2023-12-07T14:32:43;17.53;;;11.70;;
6207;SDS011;3137;51.550;7.060;2023-12-07T14:35:21;13.33;;;11.87;;
6207;SDS011;3137;51.550;7.060;2023-12-07T14:37:48;13.30;;;11.70;;
6207;SDS011;3137;51.550;7.060;2023-12-07T14:40:16;11.90;;;10.90;;
6207;SDS011;3137;51.550;7.060;2023-12-07T14:42:43;16.07;;;11.93;;
6207;SDS011;3137;51.550;7.060;2023-12-07T14:45:11;12.40;;;11.17;;
6207;SDS011;3137;51.550;7.060;2023-12-07T14:47:38;15.27;;;11.13;;
6207;SDS011;3137;51.550;7.060;2023-12-07T14:50:05;25.03;;;12.37;;
6207;SDS011;3137;51.550;7.060;2023-12-07T14:52:32;12.73;;;11.10;;
6207;SDS011;3137;51.550;7.060;2023-12-07T14:54:58;19.97;;;11.43;;
6207;SDS011;3137;51.550;7.060;2023-12-07T14:57:25;20.20;;;13.93;;
6207;SDS011;3137;51.550;7.060;2023-12-07T14:59:52;19.47;;;12.27;;